Last 7 Days

Kelseyville Remote

Hourly Data | America/Los_Angeles
as of 9/1/26 2:08 AM PDT
Date & Time Temp (°F) RH (%) Dew Pt (°F) Wet Bulb (°F) BatVolt (V) Latest Rain (In) Daily Rain (In) Daily Min Temp (°F) Daily Max Temp (°F)
9/1/26 - 0200 50.7 80 44.9 48.2 12.9 0.00 0.00 48.2 52.1
9/1/26 - 0100 51.7 78 45.1 48.8 12.9 0.00 0.00 47.6 84.3
9/1/26 - 0000 53.6 75 45.9 50.1 12.9 0.00 0.00 47.6 84.3
8/31/26 - 2300 56.8 70 47.0 52.0 13.0 0.00 0.00 47.6 84.3
8/31/26 - 2200 59.8 64 47.6 53.5 13.0 0.00 0.00 47.6 84.3
8/31/26 - 2100 63.7 57 48.4 55.3 13.0 0.00 0.00 47.6 84.3
8/31/26 - 2000 70.0 47 49.0 57.6 13.1 0.00 0.00 47.6 84.3
8/31/26 - 1900 75.4 41 49.9 59.6 13.6 0.00 0.00 47.6 84.3
8/31/26 - 1800 78.6 37 50.0 60.3 13.5 0.00 0.00 47.6 84.3
8/31/26 - 1700 80.4 33 48.4 59.9 13.5 0.00 0.00 47.6 84.3
8/31/26 - 1600 81.3 29 46.2 59.1 13.5 0.00 0.00 47.6 84.3
8/31/26 - 1500 82.2 28 46.0 59.2 13.5 0.00 0.00 47.6 84.3
8/31/26 - 1400 82.7 26 44.5 58.6 13.4 0.00 0.00 47.6 84.3
8/31/26 - 1300 80.8 29 45.8 58.8 13.5 0.00 0.00 47.6 83.3
8/31/26 - 1200 77.6 32 45.6 57.9 13.5 0.00 0.00 47.6 80.4
8/31/26 - 1100 74.1 38 46.6 57.5 13.6 0.00 0.00 47.6 75.4
8/31/26 - 1000 70.8 39 44.9 55.8 13.6 0.00 0.00 47.6 73.3
8/31/26 - 0900 65.1 44 42.8 52.9 13.7 0.00 0.00 47.6 68.6
8/31/26 - 0800 53.9 62 41.1 47.7 14.0 0.00 0.00 47.6 61.0
8/31/26 - 0700 48.2 73 40.0 44.6 12.8 0.00 0.00 47.6 57.6
8/31/26 - 0600 48.7 75 41.1 45.3 12.7 0.00 0.00 48.3 57.6
8/31/26 - 0500 49.9 71 40.8 45.8 12.8 0.00 0.00 48.9 57.6
8/31/26 - 0400 51.8 72 43.0 47.7 12.8 0.00 0.00 50.7 57.6
8/31/26 - 0300 52.2 72 43.6 48.2 12.8 0.00 0.00 51.2 57.6
8/31/26 - 0200 55.1 66 43.8 49.6 12.8 0.00 0.00 53.2 57.6
8/31/26 - 0100 57.5 60 43.7 50.5 12.8 0.00 0.00 46.5 91.5
8/31/26 - 0000 59.8 59 45.5 52.4 12.9 0.00 0.00 46.5 91.5
8/30/26 - 2300 61.9 55 45.6 53.2 13.0 0.00 0.00 46.5 91.5
8/30/26 - 2200 66.4 49 46.8 55.3 13.0 0.00 0.00 46.5 91.5
8/30/26 - 2100 72.5 40 46.8 57.2 13.0 0.00 0.00 46.5 91.5
8/30/26 - 2000 79.8 30 45.5 58.4 13.1 0.00 0.00 46.5 91.5
8/30/26 - 1900 85.3 25 45.9 59.7 13.2 0.00 0.00 46.5 91.5
8/30/26 - 1800 89.2 19 41.6 58.8 13.4 0.00 0.00 46.5 91.5
8/30/26 - 1700 90.6 15 35.9 57.2 13.3 0.00 0.00 46.5 91.5
8/30/26 - 1600 89.1 14 33.9 56.3 13.4 0.00 0.00 46.5 91.4
8/30/26 - 1500 88.0 18 39.7 57.9 13.4 0.00 0.00 46.5 89.3
8/30/26 - 1400 85.9 20 40.2 57.7 13.4 0.00 0.00 46.5 87.9
8/30/26 - 1300 81.3 30 47.0 59.4 13.5 0.00 0.00 46.5 84.7
8/30/26 - 1200 76.4 38 49.1 59.4 13.5 0.00 0.00 46.5 78.8
8/30/26 - 1100 72.6 45 49.8 58.8 13.6 0.00 0.00 46.5 74.4
8/30/26 - 1000 68.7 49 48.9 57.2 13.7 0.00 0.00 46.5 71.4
8/30/26 - 0900 63.2 50 44.3 53.0 13.8 0.00 0.00 46.5 67.5
8/30/26 - 0800 52.8 63 40.6 47.0 13.9 0.00 0.00 46.5 57.7
8/30/26 - 0700 47.3 73 39.3 43.8 12.8 0.00 0.00 46.5 54.5
8/30/26 - 0600 47.4 75 39.9 44.1 12.8 0.00 0.00 46.5 54.5
8/30/26 - 0500 48.3 71 39.5 44.4 12.8 0.00 0.00 47.8 54.5
8/30/26 - 0400 49.8 68 39.9 45.3 12.8 0.00 0.00 48.7 54.5
8/30/26 - 0300 51.2 67 40.5 46.2 12.8 0.00 0.00 50.4 54.5
8/30/26 - 0200 53.1 60 39.8 46.8 12.9 0.00 0.00 52.0 54.5
8/30/26 - 0100 55.6 58 40.8 48.4 12.8 0.00 0.00 43.2 87.8
8/30/26 - 0000 57.3 56 41.6 49.5 12.9 0.00 0.00 43.2 87.8
8/29/26 - 2300 61.0 50 42.3 51.2 13.0 0.00 0.00 43.2 87.8
8/29/26 - 2200 62.2 49 43.1 52.0 13.0 0.00 0.00 43.2 87.8
8/29/26 - 2100 67.1 41 42.7 53.6 13.0 0.00 0.00 43.2 87.8
8/29/26 - 2000 74.6 31 42.2 55.6 13.1 0.00 0.00 43.2 87.8
8/29/26 - 1900 79.8 26 41.6 56.7 13.5 0.00 0.00 43.2 87.8
8/29/26 - 1800 83.0 22 40.7 57.1 13.4 0.00 0.00 43.2 87.8
8/29/26 - 1700 85.1 22 42.2 58.2 13.4 0.00 0.00 43.2 87.8
8/29/26 - 1600 86.1 21 41.7 58.2 13.4 0.00 0.00 43.2 87.8
8/29/26 - 1500 86.1 20 40.7 57.8 13.4 0.00 0.00 43.2 87.8
8/29/26 - 1400 83.4 22 40.2 57.0 13.5 0.00 0.00 43.2 85.3
8/29/26 - 1300 80.4 23 39.5 56.1 13.5 0.00 0.00 43.2 82.7
8/29/26 - 1200 76.4 33 44.8 57.2 13.5 0.00 0.00 43.2 78.4
8/29/26 - 1100 72.9 33 42.1 55.2 13.6 0.00 0.00 43.2 75.0
8/29/26 - 1000 69.0 33 38.4 52.4 13.6 0.00 0.00 43.2 71.9
8/29/26 - 0900 61.3 37 34.6 48.0 13.8 0.00 0.00 43.2 65.6
8/29/26 - 0800 49.6 54 33.4 42.4 14.0 0.00 0.00 43.2 55.2
8/29/26 - 0700 43.7 66 33.1 39.3 12.8 0.00 0.00 43.2 50.3
8/29/26 - 0600 43.9 65 32.8 39.2 12.8 0.00 0.00 43.2 50.3
8/29/26 - 0500 44.2 65 33.1 39.5 12.8 0.00 0.00 43.3 50.3
8/29/26 - 0400 45.8 64 34.4 40.9 12.8 0.00 0.00 44.2 50.3
8/29/26 - 0300 47.8 60 34.6 42.0 12.8 0.00 0.00 46.4 50.3
8/29/26 - 0200 49.0 58 34.9 42.7 12.9 0.00 0.00 47.0 50.3
8/29/26 - 0100 51.7 53 35.3 44.2 12.9 0.00 0.00 49.7 84.2
8/29/26 - 0000 53.3 59 39.2 46.6 12.9 0.00 0.00 51.6 84.2
8/28/26 - 2300 57.9 48 38.2 48.1 12.9 0.00 0.00 55.5 84.2
8/28/26 - 2200 62.6 43 39.8 50.7 13.0 0.00 0.00 56.2 84.2
8/28/26 - 2100 66.6 38 40.4 52.4 13.0 0.00 0.00 56.2 84.2
8/28/26 - 2000 77.0 24 37.1 54.4 13.1 0.00 0.00 56.2 84.2
8/28/26 - 1900 80.2 21 37.0 55.1 13.4 0.00 0.00 56.2 84.2
8/28/26 - 1800 80.4 20 36.1 54.9 13.5 0.00 0.00 56.2 84.2
8/28/26 - 1700 82.1 17 33.2 54.4 13.5 0.00 0.00 56.2 84.2
8/28/26 - 1600 83.5 15 31.6 54.3 13.5 0.00 0.00 56.2 84.2
8/28/26 - 1500 83.0 14 29.2 53.6 13.5 0.00 0.00 56.2 83.8
8/28/26 - 1400 81.3 10 19.1 50.9 13.5 0.00 0.00 56.2 83.2
8/28/26 - 1300 79.4 14 25.0 51.8 13.5 0.00 0.00 56.2 81.6
8/28/26 - 1200 80.1 22 37.8 55.4 13.5 0.00 0.00 56.2 81.6
8/28/26 - 1100 76.8 26 39.4 55.1 13.5 0.00 0.00 56.2 78.8
8/28/26 - 1000 72.0 26 35.4 52.2 13.7 0.00 0.00 56.2 75.7
8/28/26 - 0900 64.1 38 37.8 50.4 13.8 0.00 0.00 56.2 68.0
8/28/26 - 0800 58.1 49 39.1 48.6 13.2 0.00 0.00 56.2 63.5
8/28/26 - 0700 57.0 53 39.8 48.4 12.8 0.00 0.00 56.2 63.5
8/28/26 - 0600 56.6 53 39.7 48.3 12.8 0.00 0.00 56.2 63.5
8/28/26 - 0500 57.4 52 39.9 48.7 12.8 0.00 0.00 56.6 63.5
8/28/26 - 0400 58.8 47 38.8 48.8 12.8 0.00 0.00 57.7 63.5
8/28/26 - 0300 60.6 44 38.4 49.4 12.9 0.00 0.00 58.9 63.5
8/28/26 - 0200 61.5 44 39.1 50.0 12.9 0.00 0.00 60.5 63.5
8/28/26 - 0100 64.1 40 39.1 51.0 12.9 0.00 0.00 53.3 95.2
8/28/26 - 0000 66.3 39 40.5 52.3 12.9 0.00 0.00 53.3 95.2
8/27/26 - 2300 68.5 38 42.2 53.8 13.0 0.00 0.00 53.3 95.2
8/27/26 - 2200 71.1 36 42.6 54.8 13.0 0.00 0.00 53.3 95.2
8/27/26 - 2100 75.8 30 42.3 56.0 13.0 0.00 0.00 53.3 95.2
8/27/26 - 2000 84.6 22 40.9 57.6 13.0 0.00 0.00 53.3 95.2
8/27/26 - 1900 89.1 20 43.2 59.3 13.4 0.00 0.00 53.3 95.2
8/27/26 - 1800 92.7 14 36.4 57.8 13.3 0.00 0.00 53.3 95.2
8/27/26 - 1700 94.4 13 35.4 57.7 13.3 0.00 0.00 53.3 95.2
8/27/26 - 1600 94.2 12 34.4 57.4 13.3 0.00 0.00 53.3 95.0
8/27/26 - 1500 93.6 13 34.6 57.3 13.3 0.00 0.00 53.3 94.4
8/27/26 - 1400 90.9 22 47.3 61.3 13.4 0.00 0.00 53.3 92.9
8/27/26 - 1300 87.6 26 48.6 61.4 13.4 0.00 0.00 53.3 89.2
8/27/26 - 1200 85.4 29 50.0 61.6 13.4 0.00 0.00 53.3 87.4
8/27/26 - 1100 80.5 35 50.6 61.1 13.5 0.00 0.00 53.3 84.4
8/27/26 - 1000 74.3 46 52.0 60.4 13.6 0.00 0.00 53.3 76.9
8/27/26 - 0900 69.9 48 49.3 57.8 13.7 0.00 0.00 53.3 73.4
8/27/26 - 0800 59.7 61 46.2 52.7 13.9 0.00 0.00 53.3 66.5
8/27/26 - 0700 54.1 71 44.9 49.8 12.8 0.00 0.00 53.3 62.0
8/27/26 - 0600 55.5 70 45.9 50.9 12.8 0.00 0.00 54.7 62.0
8/27/26 - 0500 56.8 69 46.6 51.8 12.8 0.00 0.00 55.7 62.0
8/27/26 - 0400 58.2 68 47.8 53.0 12.8 0.00 0.00 57.5 62.0
8/27/26 - 0300 60.1 64 47.8 53.8 12.9 0.00 0.00 58.9 62.0
8/27/26 - 0200 60.6 63 47.9 54.0 12.9 0.00 0.00 59.5 62.0
8/27/26 - 0100 62.4 60 48.3 54.8 12.9 0.00 0.00 45.5 95.6
8/27/26 - 0000 63.3 60 49.1 55.6 12.9 0.00 0.00 45.5 95.6
8/26/26 - 2300 64.2 57 48.5 55.6 13.0 0.00 0.00 45.5 95.6
8/26/26 - 2200 65.5 51 47.1 55.2 13.0 0.00 0.00 45.5 95.6
8/26/26 - 2100 74.0 40 48.1 58.2 13.0 0.00 0.00 45.5 95.6
8/26/26 - 2000 80.2 29 44.6 58.1 13.1 0.00 0.00 45.5 95.6
8/26/26 - 1900 86.9 19 39.8 57.7 13.5 0.00 0.00 45.5 95.6
8/26/26 - 1800 91.2 15 37.7 57.8 13.4 0.00 0.00 45.5 95.6
8/26/26 - 1700 93.7 12 33.6 57.1 13.3 0.00 0.00 45.5 95.6
8/26/26 - 1600 94.1 10 29.7 56.3 13.3 0.00 0.00 45.5 95.6
8/26/26 - 1500 91.5 16 38.1 58.0 13.4 0.00 0.00 45.5 93.2
8/26/26 - 1400 90.0 14 35.1 56.8 13.4 0.00 0.00 45.5 91.9
8/26/26 - 1300 85.6 20 39.9 57.4 13.4 0.00 0.00 45.5 88.5
8/26/26 - 1200 81.4 23 40.2 56.6 13.5 0.00 0.00 45.5 84.4
8/26/26 - 1100 76.1 31 43.4 56.6 13.5 0.00 0.00 45.5 77.8
8/26/26 - 1000 72.4 31 40.4 54.3 13.6 0.00 0.00 45.5 73.9
8/26/26 - 0900 65.6 35 37.4 50.8 13.7 0.00 0.00 45.5 70.4
8/26/26 - 0800 54.8 52 37.2 46.3 13.9 0.00 0.00 45.5 60.9
8/26/26 - 0700 46.3 70 37.2 42.3 12.8 0.00 0.00 45.5 57.5
8/26/26 - 0600 48.2 65 37.1 43.2 12.7 0.00 0.00 46.3 57.5
8/26/26 - 0500 49.5 63 37.4 44.0 12.8 0.00 0.00 48.1 57.5
8/26/26 - 0400 50.5 65 39.3 45.4 12.8 0.00 0.00 49.7 57.5
8/26/26 - 0300 52.6 63 40.2 46.8 12.8 0.00 0.00 51.2 57.5
8/26/26 - 0200 55.3 61 42.1 48.8 12.9 0.00 0.00 53.9 57.5
8/26/26 - 0100 60.9 50 42.0 51.0 12.9 0.00 0.00 49.9 92.9
8/26/26 - 0000 63.4 46 42.2 52.1 12.9 0.00 0.00 49.9 92.9
8/25/26 - 2300 66.3 45 44.2 54.0 13.0 0.00 0.00 49.9 92.9
8/25/26 - 2200 69.2 44 46.3 56.0 13.0 0.00 0.00 49.9 92.9
8/25/26 - 2100 75.4 37 47.0 58.0 13.0 0.00 0.00 49.9 92.9
8/25/26 - 2000 83.3 27 46.0 59.4 13.1 0.00 0.00 49.9 92.9
8/25/26 - 1900 87.9 23 45.1 59.9 13.4 0.00 0.00 49.9 92.9
8/25/26 - 1800 91.1 15 36.1 57.3 13.3 0.00 0.00 49.9 92.9
8/25/26 - 1700 92.0 11 29.7 55.8 13.4 0.00 0.00 49.9 92.9
8/25/26 - 1600 90.6 13 32.2 56.2 13.4 0.00 0.00 49.9 92.7
8/25/26 - 1500 89.3 15 34.8 56.6 13.4 0.00 0.00 49.9 90.9
8/25/26 - 1400 86.4 16 35.3 56.1 13.4 0.00 0.00 49.9 88.3
8/25/26 - 1300 82.3 26 43.5 58.2 13.5 0.00 0.00 49.9 84.0
8/25/26 - 1200 79.8 27 42.8 57.2 13.5 0.00 0.00 49.9 81.8
8/25/26 - 1100 75.8 35 45.8 57.6 13.5 0.00 0.00 49.9 77.7
8/25/26 - 1000 74.1 36 45.1 56.8 13.6 0.00 0.00 49.9 76.3
8/25/26 - 0900 66.5 41 42.2 53.1 13.7 0.00 0.00 49.9 71.5
8/25/26 - 0800 55.2 59 41.2 48.3 13.8 0.00 0.00 49.9 61.4
8/25/26 - 0700 51.0 67 40.7 46.2 12.8 0.00 0.00 49.9 58.1
8/25/26 - 0600 51.6 68 41.4 46.9 12.8 0.00 0.00 51.0 58.1
8/25/26 - 0500 53.2 65 41.7 47.7 12.8 0.00 0.00 52.4 58.1
8/25/26 - 0400 53.2 67 42.5 48.1 12.8 0.00 0.00 52.7 58.1
8/25/26 - 0300 54.7 65 43.4 49.2 12.8 0.00 0.00 53.9 58.1
Max 94.4 80 52.0 61.6 14.0 0.00 0.00 60.5 95.6
Avg 69.0 42 41.3 53.0 13.2 0.00 - - -
Min 43.7 10 19.1 39.2 12.7 0.00 0.00 43.2 50.3
Total - - - - - 0.00 - - -